sensor_id;sensor_type;location;lat;lon;timestamp;pressure;altitude;pressure_sealevel;temperature;humidity
55014;BME280;40916;51.632;5.552;2023-01-28T00:00:27;1024.5737776769781;;;2.625476492983058;0
55014;BME280;40916;51.632;5.552;2023-01-28T00:01:27;1024.6207978266266;;;2.625476492983058;0
55014;BME280;40916;51.632;5.552;2023-01-28T00:02:27;1024.5844710158692;;;2.6180785765491343;0
55014;BME280;40916;51.632;5.552;2023-01-28T00:03:27;1024.624256651002;;;2.6180785765491343;0
55014;BME280;40916;51.632;5.552;2023-01-28T00:04:27;1024.5732985507013;;;2.603280858725064;0
55014;BME280;40916;51.632;5.552;2023-01-28T00:05:27;1024.6528672355;;;2.603280858725064;0
55014;BME280;40916;51.632;5.552;2023-01-28T00:06:27;1024.6456337163963;;;2.603280858725064;0
55014;BME280;40916;51.632;5.552;2023-01-28T00:07:28;1024.685418077168;;;2.603280858725064;0
55014;BME280;40916;51.632;5.552;2023-01-28T00:08:28;1024.6998851209041;;;2.603280858725064;0
55014;BME280;40916;51.632;5.552;2023-01-28T00:09:28;1024.7108997746745;;;2.610680031871283;0
55014;BME280;40916;51.632;5.552;2023-01-28T00:10:28;1024.6706163202768;;;2.588480626129222;0
55014;BME280;40916;51.632;5.552;2023-01-28T00:11:28;1024.634449901887;;;2.588480626129222;0
55014;BME280;40916;51.632;5.552;2023-01-28T00:12:28;1024.7107354049156;;;2.603280858725064;0
55014;BME280;40916;51.632;5.552;2023-01-28T00:13:28;1024.6814662480401;;;2.588480626129222;0
55014;BME280;40916;51.632;5.552;2023-01-28T00:14:28;1024.6923161768398;;;2.588480626129222;0
55014;BME280;40916;51.632;5.552;2023-01-28T00:15:28;1024.7395022359958;;;2.595881056885929;0
55014;BME280;40916;51.632;5.552;2023-01-28T00:16:29;1024.749835473804;;;2.573677876963938;0
55014;BME280;40916;51.632;5.552;2023-01-28T00:17:29;1024.7246940910466;;;2.58107956623018;0
55014;BME280;40916;51.632;5.552;2023-01-28T00:18:29;1024.7098771878236;;;2.566275558105513;0
55014;BME280;40916;51.632;5.552;2023-01-28T00:19:31;1024.8111383063;;;2.566275558105513;0
55014;BME280;40916;51.632;5.552;2023-01-28T00:20:29;1024.7894394875968;;;2.566275558105513;0
55014;BME280;40916;51.632;5.552;2023-01-28T00:21:29;1024.81854950953;;;2.573677876963938;0
55014;BME280;40916;51.632;5.552;2023-01-28T00:22:29;1024.8149329802973;;;2.573677876963938;0
55014;BME280;40916;51.632;5.552;2023-01-28T00:23:30;1024.8474817475376;;;2.573677876963938;0
55014;BME280;40916;51.632;5.552;2023-01-28T00:24:31;1024.7892592691105;;;2.5588726094298195;0
55014;BME280;40916;51.632;5.552;2023-01-28T00:25:29;1024.7968503358618;;;2.573677876963938;0
55014;BME280;40916;51.632;5.552;2023-01-28T00:26:29;1024.7534520009635;;;2.573677876963938;0
55014;BME280;40916;51.632;5.552;2023-01-28T00:27:29;1024.7932338073201;;;2.573677876963938;0
55014;BME280;40916;51.632;5.552;2023-01-28T00:28:30;1024.7389858930164;;;2.573677876963938;0
55014;BME280;40916;51.632;5.552;2023-01-28T00:29:30;1024.8004668645185;;;2.573677876963938;0
55014;BME280;40916;51.632;5.552;2023-01-28T00:30:30;1024.7892592691105;;;2.5588726094298195;0
55014;BME280;40916;51.632;5.552;2023-01-28T00:31:30;1024.7890766227426;;;2.5514690307116723;0
55014;BME280;40916;51.632;5.552;2023-01-28T00:32:30;1024.7527286273714;;;2.544064821725769;0
55014;BME280;40916;51.632;5.552;2023-01-28T00:33:30;1024.8943171497372;;;2.566275558105513;0
55014;BME280;40916;51.632;5.552;2023-01-28T00:34:30;1024.8718774484516;;;2.5366599822467;0
55014;BME280;40916;51.632;5.552;2023-01-28T00:35:30;1024.8499890962325;;;2.529254512048958;0
55014;BME280;40916;51.632;5.552;2023-01-28T00:36:30;1024.8387517548429;;;2.5144416785948493;0
55014;BME280;40916;51.632;5.552;2023-01-28T00:37:30;1024.896805269136;;;2.5218484109069195;0
55014;BME280;40916;51.632;5.552;2023-01-28T00:38:31;1024.8638656999724;;;2.507034314886919;0
55014;BME280;40916;51.632;5.552;2023-01-28T00:39:31;1024.9142879896845;;;2.49962631955718;0
55014;BME280;40916;51.632;5.552;2023-01-28T00:40:31;1024.9540633683598;;;2.49962631955718;0
55014;BME280;40916;51.632;5.552;2023-01-28T00:41:31;1024.8813348186045;;;2.484808433127963;0
55014;BME280;40916;51.632;5.552;2023-01-28T00:42:31;1024.913877238249;;;2.484808433127963;0
55014;BME280;40916;51.632;5.552;2023-01-28T00:43:31;1024.8270974732536;;;2.484808433127963;0
55014;BME280;40916;51.632;5.552;2023-01-28T00:44:31;1024.888976392326;;;2.49962631955718;0
55014;BME280;40916;51.632;5.552;2023-01-28T00:45:31;1024.8743091151182;;;2.492217692379583;0
55014;BME280;40916;51.632;5.552;2023-01-28T00:46:31;1024.841766176032;;;2.492217692379583;0
55014;BME280;40916;51.632;5.552;2023-01-28T00:47:31;1024.805809755013;;;2.49962631955718;0
55014;BME280;40916;51.632;5.552;2023-01-28T00:48:31;1024.8128391268956;;;2.492217692379583;0
55014;BME280;40916;51.632;5.552;2023-01-28T00:49:31;1024.8311213338345;;;2.49962631955718;0
55014;BME280;40916;51.632;5.552;2023-01-28T00:50:32;1024.7405215362905;;;2.492217692379583;0
55014;BME280;40916;51.632;5.552;2023-01-28T00:51:32;1024.7913459982192;;;2.49962631955718;0
55014;BME280;40916;51.632;5.552;2023-01-28T00:52:32;1024.8383532145342;;;2.49962631955718;0
55014;BME280;40916;51.632;5.552;2023-01-28T00:53:32;1024.8925923344605;;;2.49962631955718;0
55014;BME280;40916;51.632;5.552;2023-01-28T00:54:32;1024.903236179913;;;2.492217692379583;0
55014;BME280;40916;51.632;5.552;2023-01-28T00:55:32;1024.921315599151;;;2.492217692379583;0
55014;BME280;40916;51.632;5.552;2023-01-28T00:56:32;1024.8917625072909;;;2.469988017497478;0
55014;BME280;40916;51.632;5.552;2023-01-28T00:57:32;1024.9679047123986;;;2.477398541576054;0
55014;BME280;40916;51.632;5.552;2023-01-28T00:58:32;1024.9206881610046;;;2.469988017497478;0
55014;BME280;40916;51.632;5.552;2023-01-28T00:59:33;1025.018525470962;;;2.477398541576054;0
55014;BME280;40916;51.632;5.552;2023-01-28T01:00:32;1024.9783245287072;;;2.462576860665756;0
55014;BME280;40916;51.632;5.552;2023-01-28T01:01:33;1024.9125865221058;;;2.440339591385225;0
55014;BME280;40916;51.632;5.552;2023-01-28T01:02:33;1024.9600291760678;;;2.4551650708542923;0
55014;BME280;40916;51.632;5.552;2023-01-28T01:03:33;1025.043622271484;;;2.469988017497478;0
55014;BME280;40916;51.632;5.552;2023-01-28T01:04:33;1024.8945091688893;;;2.440339591385225;0
55014;BME280;40916;51.632;5.552;2023-01-28T01:05:33;1024.9923494218658;;;2.447752647836385;0
55014;BME280;40916;51.632;5.552;2023-01-28T01:06:34;1024.9304399307716;;;2.432925901273901;0
55014;BME280;40916;51.632;5.552;2023-01-28T01:07:33;1024.8979012230106;;;2.432925901273901;0
55014;BME280;40916;51.632;5.552;2023-01-28T01:08:33;1024.9012907193735;;;2.4255115772753797;0
55014;BME280;40916;51.632;5.552;2023-01-28T01:09:33;1024.9008315667518;;;2.410681026708115;0
55014;BME280;40916;51.632;5.552;2023-01-28T01:10:33;1024.9442143890012;;;2.410681026708115;0
55014;BME280;40916;51.632;5.552;2023-01-28T01:11:34;1024.9008315667518;;;2.410681026708115;0
55014;BME280;40916;51.632;5.552;2023-01-28T01:12:34;1024.915523538708;;;2.418096619162533;0
55014;BME280;40916;51.632;5.552;2023-01-28T01:13:34;1024.8931324137604;;;2.395847937865053;0
55014;BME280;40916;51.632;5.552;2023-01-28T01:14:34;1024.8314384520743;;;2.388430441021381;0
55014;BME280;40916;51.632;5.552;2023-01-28T01:15:34;1024.8861376269522;;;2.4032647996847736;0
55014;BME280;40916;51.632;5.552;2023-01-28T01:16:34;1024.889279349914;;;2.388430441021381;0
55014;BME280;40916;51.632;5.552;2023-01-28T01:17:34;1024.9473591696183;;;2.395847937865053;0
55014;BME280;40916;51.632;5.552;2023-01-28T01:18:34;1024.936750088267;;;2.4032647996847736;0
55014;BME280;40916;51.632;5.552;2023-01-28T01:19:35;1024.8786719499046;;;2.395847937865053;0
55014;BME280;40916;51.632;5.552;2023-01-28T01:20:34;1024.8203540171917;;;2.3810123089260813;0
55014;BME280;40916;51.632;5.552;2023-01-28T01:21:35;1024.9075928794573;;;2.395847937865053;0
55014;BME280;40916;51.632;5.552;2023-01-28T01:22:35;1024.9039777628604;;;2.395847937865053;0
55014;BME280;40916;51.632;5.552;2023-01-28T01:23:35;1024.8752921024623;;;2.4032647996847736;0
55014;BME280;40916;51.632;5.552;2023-01-28T01:24:35;1024.8745789671536;;;2.3810123089260813;0
55014;BME280;40916;51.632;5.552;2023-01-28T01:25:35;1024.8458986737724;;;2.388430441021381;0
55014;BME280;40916;51.632;5.552;2023-01-28T01:26:35;1024.8750568342282;;;2.395847937865053;0
55014;BME280;40916;51.632;5.552;2023-01-28T01:27:35;1024.824445226845;;;2.395847937865053;0
55014;BME280;40916;51.632;5.552;2023-01-28T01:28:35;1024.8164973660525;;;2.3735935413513687;0
55014;BME280;40916;51.632;5.552;2023-01-28T01:29:35;1024.8234830207123;;;2.366174138069347;0
55014;BME280;40916;51.632;5.552;2023-01-28T01:30:35;1024.7943178095725;;;2.358754098852014;0
55014;BME280;40916;51.632;5.552;2023-01-28T01:31:35;1024.8451722896189;;;2.366174138069347;0
55014;BME280;40916;51.632;5.552;2023-01-28T01:32:36;1024.899640939053;;;2.3735935413513687;0
55014;BME280;40916;51.632;5.552;2023-01-28T01:33:36;1024.8384289976354;;;2.3810123089260813;0
55014;BME280;40916;51.632;5.552;2023-01-28T01:34:36;1024.797932627453;;;2.358754098852014;0
55014;BME280;40916;51.632;5.552;2023-01-28T01:35:36;1024.8090235104094;;;2.366174138069347;0
55014;BME280;40916;51.632;5.552;2023-01-28T01:36:36;1024.8302167638133;;;2.351333423471253;0
55014;BME280;40916;51.632;5.552;2023-01-28T01:37:36;1024.7612857915226;;;2.3439121116988417;0
55014;BME280;40916;51.632;5.552;2023-01-28T01:38:36;1024.8699791297495;;;2.351333423471253;0
55014;BME280;40916;51.632;5.552;2023-01-28T01:39:36;1024.9205857974398;;;2.351333423471253;0
55014;BME280;40916;51.632;5.552;2023-01-28T01:40:36;1024.8219663163954;;;2.321644355747864;0
55014;BME280;40916;51.632;5.552;2023-01-28T01:41:36;1024.9784220166998;;;2.351333423471253;0
55014;BME280;40916;51.632;5.552;2023-01-28T01:42:36;1024.9673238014268;;;2.3439121116988417;0
55014;BME280;40916;51.632;5.552;2023-01-28T01:43:45;1024.96706743118;;;2.336490163306454;0
55014;BME280;40916;51.632;5.552;2023-01-28T01:44:54;1024.9092331078164;;;2.336490163306454;0
55014;BME280;40916;51.632;5.552;2023-01-28T01:45:37;1024.8725696547317;;;2.321644355747864;0
55014;BME280;40916;51.632;5.552;2023-01-28T01:46:37;1024.8322843698572;;;2.306795998966649;0
55014;BME280;40916;51.632;5.552;2023-01-28T01:47:39;1024.8870277555409;;;2.321644355747864;0
55014;BME280;40916;51.632;5.552;2023-01-28T01:48:37;1024.926787542257;;;2.321644355747864;0
55014;BME280;40916;51.632;5.552;2023-01-28T01:49:37;1024.9626691546334;;;2.314220496124456;0
55014;BME280;40916;51.632;5.552;2023-01-28T01:50:38;1024.8648140242026;;;2.306795998966649;0
55014;BME280;40916;51.632;5.552;2023-01-28T01:51:37;1024.9076491050494;;;2.291945091132213;0
55014;BME280;40916;51.632;5.552;2023-01-28T01:52:37;1024.918491974761;;;2.291945091132213;0
55014;BME280;40916;51.632;5.552;2023-01-28T01:53:38;1024.874848451651;;;2.2845186799975004;0
55014;BME280;40916;51.632;5.552;2023-01-28T01:54:38;1024.8198068039094;;;2.2622356149725675;0
55014;BME280;40916;51.632;5.552;2023-01-28T01:55:38;1024.9365634265812;;;2.291945091132213;0
55014;BME280;40916;51.632;5.552;2023-01-28T01:56:39;1024.9179440012897;;;2.277091630412219;0
55014;BME280;40916;51.632;5.552;2023-01-28T01:57:38;1024.8773496975275;;;2.254806648659237;0
55014;BME280;40916;51.632;5.552;2023-01-28T01:58:38;1024.9282283707832;;;2.2622356149725675;0
55014;BME280;40916;51.632;5.552;2023-01-28T01:59:38;1024.8920878369906;;;2.2622356149725675;0
55014;BME280;40916;51.632;5.552;2023-01-28T02:00:38;1024.9713135600045;;;2.254806648659237;0
55014;BME280;40916;51.632;5.552;2023-01-28T02:01:38;1024.9171036298565;;;2.254806648659237;0
55014;BME280;40916;51.632;5.552;2023-01-28T02:02:39;1024.9568575761014;;;2.254806648659237;0
55014;BME280;40916;51.632;5.552;2023-01-28T02:03:40;1024.9968954166754;;;2.2622356149725675;0
55014;BME280;40916;51.632;5.552;2023-01-28T02:04:39;1024.978541552646;;;2.254806648659237;0
55014;BME280;40916;51.632;5.552;2023-01-28T02:05:38;1024.9857695457474;;;2.254806648659237;0
55014;BME280;40916;51.632;5.552;2023-01-28T02:06:38;1024.982439193037;;;2.2622356149725675;0
55014;BME280;40916;51.632;5.552;2023-01-28T02:07:39;1024.9457300800225;;;2.247377042977405;0
55014;BME280;40916;51.632;5.552;2023-01-28T02:08:39;1024.8981720641325;;;2.232515912589122;0
55014;BME280;40916;51.632;5.552;2023-01-28T02:09:39;1024.9929975393095;;;2.254806648659237;0
55014;BME280;40916;51.632;5.552;2023-01-28T02:10:39;1024.996325199035;;;2.247377042977405;0
55014;BME280;40916;51.632;5.552;2023-01-28T02:11:39;1024.9562837451135;;;2.239946797697325;0
55014;BME280;40916;51.632;5.552;2023-01-28T02:12:40;1024.9346004823392;;;2.239946797697325;0
55014;BME280;40916;51.632;5.552;2023-01-28T02:13:40;1025.0180088283691;;;2.247377042977405;0
55014;BME280;40916;51.632;5.552;2023-01-28T02:14:40;1025.0138142507283;;;2.232515912589122;0
55014;BME280;40916;51.632;5.552;2023-01-28T02:15:39;1025.0246557117591;;;2.232515912589122;0
55014;BME280;40916;51.632;5.552;2023-01-28T02:16:39;1025.0716353881858;;;2.232515912589122;0
55014;BME280;40916;51.632;5.552;2023-01-28T02:17:39;1024.9665413594937;;;2.225084387422818;0
55014;BME280;40916;51.632;5.552;2023-01-28T02:18:39;1024.944265657282;;;2.210219415995468;0
55014;BME280;40916;51.632;5.552;2023-01-28T02:19:41;1024.9728740472108;;;2.2027859692739113;0
55014;BME280;40916;51.632;5.552;2023-01-28T02:20:43;1025.0674293167656;;;2.217652221968333;0
55014;BME280;40916;51.632;5.552;2023-01-28T02:21:52;1025.0306913785148;;;2.2027859692739113;0
55014;BME280;40916;51.632;5.552;2023-01-28T02:23:03;1024.9864106800367;;;2.180481782312363;0
55014;BME280;40916;51.632;5.552;2023-01-28T02:23:44;1024.9575034418606;;;2.180481782312363;0
55014;BME280;40916;51.632;5.552;2023-01-28T02:24:44;1024.993326546475;;;2.1730457702907557;0
55014;BME280;40916;51.632;5.552;2023-01-28T02:25:52;1024.9818575802658;;;2.158171820310912;0
55014;BME280;40916;51.632;5.552;2023-01-28T02:26:58;1025.007150175998;;;2.158171820310912;0
55014;BME280;40916;51.632;5.552;2023-01-28T02:27:57;1024.962830443284;;;2.1358560770333277;0
55014;BME280;40916;51.632;5.552;2023-01-28T02:28:42;1025.017671107062;;;2.15073388189062;0
55014;BME280;40916;51.632;5.552;2023-01-28T02:29:41;1024.9050216678518;;;2.1358560770333277;0
55014;BME280;40916;51.632;5.552;2023-01-28T02:30:41;1025.0475267536203;;;2.1730457702907557;0
55014;BME280;40916;51.632;5.552;2023-01-28T02:31:42;1024.9565649901667;;;2.158171820310912;0
55014;BME280;40916;51.632;5.552;2023-01-28T02:32:42;1024.9086347154541;;;2.1358560770333277;0
55014;BME280;40916;51.632;5.552;2023-01-28T02:33:42;1024.9523139187374;;;2.1432953008751916;0
55014;BME280;40916;51.632;5.552;2023-01-28T02:34:42;1025.017671107062;;;2.15073388189062;0
55014;BME280;40916;51.632;5.552;2023-01-28T02:35:42;1025.0216030903741;;;2.158171820310912;0
55014;BME280;40916;51.632;5.552;2023-01-28T02:36:42;1025.0173498857553;;;2.1432953008751916;0
55014;BME280;40916;51.632;5.552;2023-01-28T02:37:43;1025.0058610648384;;;2.128416210133608;0
55014;BME280;40916;51.632;5.552;2023-01-28T02:38:42;1024.9654601014618;;;2.1135345462343977;0
55014;BME280;40916;51.632;5.552;2023-01-28T02:39:43;1024.9690729733748;;;2.1135345462343977;0
55014;BME280;40916;51.632;5.552;2023-01-28T02:40:42;1024.9546214864122;;;2.1135345462343977;0
55014;BME280;40916;51.632;5.552;2023-01-28T02:41:43;1024.9073223774299;;;2.1060927487715198;0
55014;BME280;40916;51.632;5.552;2023-01-28T02:42:42;1024.8849752340382;;;2.0912072216599107;0
55014;BME280;40916;51.632;5.552;2023-01-28T02:43:43;1024.925718518004;;;2.1135345462343977;0
55014;BME280;40916;51.632;5.552;2023-01-28T02:45:42;1024.8564096068599;;;2.0986503073240144;0
55014;BME280;40916;51.632;5.552;2023-01-28T02:46:42;1024.906651385951;;;2.0912072216599107;0
55014;BME280;40916;51.632;5.552;2023-01-28T02:47:42;1024.8849752340382;;;2.0912072216599107;0
55014;BME280;40916;51.632;5.552;2023-01-28T02:48:42;1024.8961498633155;;;2.0986503073240144;0
55014;BME280;40916;51.632;5.552;2023-01-28T02:49:44;1024.9539538975307;;;2.0986503073240144;0
55014;BME280;40916;51.632;5.552;2023-01-28T02:50:44;1024.934871099694;;;2.076319116753478;0
55014;BME280;40916;51.632;5.552;2023-01-28T02:51:46;1024.9388258845825;;;2.0837634915471313;0
55014;BME280;40916;51.632;5.552;2023-01-28T02:52:45;1024.985790137934;;;2.0837634915471313;0
55014;BME280;40916;51.632;5.552;2023-01-28T02:53:44;1024.88360499953;;;2.0614284321942122;0
55014;BME280;40916;51.632;5.552;2023-01-28T02:54:45;1024.9388258845825;;;2.0837634915471313;0
55014;BME280;40916;51.632;5.552;2023-01-28T02:55:44;1024.887217454246;;;2.0614284321942122;0
55014;BME280;40916;51.632;5.552;2023-01-28T02:56:44;1024.9851017036415;;;2.068874097046642;0
55014;BME280;40916;51.632;5.552;2023-01-28T02:57:45;1024.8977058373684;;;2.0539821219636565;0
55014;BME280;40916;51.632;5.552;2023-01-28T02:59:45;1024.9193802146012;;;2.0539821219636565;0
55014;BME280;40916;51.632;5.552;2023-01-28T03:00:45;1024.9403477818578;;;2.0390875644374944;0
55014;BME280;40916;51.632;5.552;2023-01-28T03:01:44;1024.9696011347312;;;2.046535166122336;0
55014;BME280;40916;51.632;5.552;2023-01-28T03:02:45;1024.9880157697958;;;2.0539821219636565;0
55014;BME280;40916;51.632;5.552;2023-01-28T03:03:48;1025.0169149633405;;;2.0539821219636565;0
55014;BME280;40916;51.632;5.552;2023-01-28T03:04:45;1024.9696011347312;;;2.046535166122336;0
55014;BME280;40916;51.632;5.552;2023-01-28T03:05:45;1025.017265900556;;;2.0614284321942122;0
55014;BME280;40916;51.632;5.552;2023-01-28T03:06:44;1024.980790972559;;;2.0539821219636565;0
55014;BME280;40916;51.632;5.552;2023-01-28T03:07:44;1025.0750652578306;;;2.0614284321942122;0
55014;BME280;40916;51.632;5.552;2023-01-28T03:08:45;1025.0133025637454;;;2.0539821219636565;0
55014;BME280;40916;51.632;5.552;2023-01-28T03:09:45;1024.980790972559;;;2.0539821219636565;0
55014;BME280;40916;51.632;5.552;2023-01-28T03:10:44;1024.9118037270946;;;2.046535166122336;0
55014;BME280;40916;51.632;5.552;2023-01-28T03:11:45;1024.9916281685867;;;2.0539821219636565;0
55014;BME280;40916;51.632;5.552;2023-01-28T03:12:45;1024.9836951346522;;;2.0390875644374944;0
55014;BME280;40916;51.632;5.552;2023-01-28T03:13:45;1025.0422017637247;;;2.0539821219636565;0
55014;BME280;40916;51.632;5.552;2023-01-28T03:14:45;1025.0963877835084;;;2.0539821219636565;0
55014;BME280;40916;51.632;5.552;2023-01-28T03:15:46;1025.1029004401512;;;2.0390875644374944;0
55014;BME280;40916;51.632;5.552;2023-01-28T03:16:45;1025.1108373931506;;;2.0539821219636565;0
55014;BME280;40916;51.632;5.552;2023-01-28T03:17:46;1025.0559407594117;;;2.0390875644374944;0
55014;BME280;40916;51.632;5.552;2023-01-28T03:18:46;1025.0555817399702;;;2.0316393166762694;0
55014;BME280;40916;51.632;5.552;2023-01-28T03:19:45;1025.0158472926578;;;2.0316393166762694;0
55014;BME280;40916;51.632;5.552;2023-01-28T03:20:47;1025.0483572939702;;;2.0316393166762694;0
55014;BME280;40916;51.632;5.552;2023-01-28T03:21:45;1025.1065127240895;;;2.0390875644374944;0
55014;BME280;40916;51.632;5.552;2023-01-28T03:22:46;1025.0776144558017;;;2.0390875644374944;0
55014;BME280;40916;51.632;5.552;2023-01-28T03:23:47;1025.1072249905676;;;2.0539821219636565;0
55014;BME280;40916;51.632;5.552;2023-01-28T03:24:46;1025.1245741455036;;;2.0390875644374944;0
55014;BME280;40916;51.632;5.552;2023-01-28T03:25:46;1025.1292521819928;;;2.0614284321942122;0
55014;BME280;40916;51.632;5.552;2023-01-28T03:26:47;1024.958051757748;;;2.0316393166762694;0
55014;BME280;40916;51.632;5.552;2023-01-28T03:27:46;1025.0050106276217;;;2.0316393166762694;0
55014;BME280;40916;51.632;5.552;2023-01-28T03:28:46;1024.9902013118287;;;2.0241904226056846;0
55014;BME280;40916;51.632;5.552;2023-01-28T03:29:46;1025.0118742845166;;;2.0241904226056846;0
55014;BME280;40916;51.632;5.552;2023-01-28T03:30:47;1025.036795744341;;;2.01674088199265;0
55014;BME280;40916;51.632;5.552;2023-01-28T03:31:46;1025.0624445702065;;;2.0241904226056846;0
55014;BME280;40916;51.632;5.552;2023-01-28T03:32:46;1025.0216130036058;;;2.0018398602063243;0
55014;BME280;40916;51.632;5.552;2023-01-28T03:33:47;1025.0605992904489;;;1.9869362494503342;0
55014;BME280;40916;51.632;5.552;2023-01-28T03:34:47;1025.0024338715643;;;1.9794834726248034;0
55014;BME280;40916;51.632;5.552;2023-01-28T03:35:47;1025.0858823665428;;;1.9869362494503342;0
55014;BME280;40916;51.632;5.552;2023-01-28T03:36:47;1024.998063629906;;;1.9645759749098595;0
55014;BME280;40916;51.632;5.552;2023-01-28T03:37:47;1025.049763688132;;;1.9869362494503342;0
55014;BME280;40916;51.632;5.552;2023-01-28T03:38:47;1025.0406340934605;;;1.9496658835500114;0
55014;BME280;40916;51.632;5.552;2023-01-28T03:39:47;1025.0911960911599;;;1.9496658835500114;0
55014;BME280;40916;51.632;5.552;2023-01-28T03:40:48;1025.0651345169704;;;1.934753196672009;0
55014;BME280;40916;51.632;5.552;2023-01-28T03:41:55;1025.1778738538756;;;1.9496658835500114;0
55014;BME280;40916;51.632;5.552;2023-01-28T03:42:47;1025.0791860736538;;;1.927295879327815;0
55014;BME280;40916;51.632;5.552;2023-01-28T03:43:47;1024.976874383124;;;1.904920028859518;0
55014;BME280;40916;51.632;5.552;2023-01-28T03:44:48;1025.041876225952;;;1.904920028859518;0
55014;BME280;40916;51.632;5.552;2023-01-28T03:45:48;1024.9977333561164;;;1.8899995441695019;0
55014;BME280;40916;51.632;5.552;2023-01-28T03:46:48;1024.9869000733622;;;1.8899995441695019;0
55014;BME280;40916;51.632;5.552;2023-01-28T03:47:48;1024.9499724108405;;;1.875076456450266;0
55014;BME280;40916;51.632;5.552;2023-01-28T03:48:48;1025.0149699648514;;;1.875076456450266;0
55014;BME280;40916;51.632;5.552;2023-01-28T03:49:48;1024.9780325576485;;;1.8601507638195223;0
55014;BME280;40916;51.632;5.552;2023-01-28T03:50:48;1025.0358062738978;;;1.8601507638195223;0
55014;BME280;40916;51.632;5.552;2023-01-28T03:51:48;1024.973584190991;;;1.8452224643931565;0
55014;BME280;40916;51.632;5.552;2023-01-28T03:52:48;1024.9867514405155;;;1.8228251233858614;0
55014;BME280;40916;51.632;5.552;2023-01-28T03:53:48;1025.0228570432996;;;1.8228251233858614;0
55014;BME280;40916;51.632;5.552;2023-01-28T03:54:48;1024.9425632003674;;;1.8078902987155416;0
55014;BME280;40916;51.632;5.552;2023-01-28T03:55:49;1025.0765837542742;;;1.8153580376080427;0
55014;BME280;40916;51.632;5.552;2023-01-28T03:56:49;1025.0549207373672;;;1.8153580376080427;0
55014;BME280;40916;51.632;5.552;2023-01-28T03:57:49;1025.1162992960028;;;1.8153580376080427;0
55014;BME280;40916;51.632;5.552;2023-01-28T03:58:49;1025.064442637965;;;1.792952860640895;0
55014;BME280;40916;51.632;5.552;2023-01-28T03:59:49;1025.1375271006295;;;1.8078902987155416;0
55014;BME280;40916;51.632;5.552;2023-01-28T04:00:50;1025.201635053832;;;1.792952860640895;0
55014;BME280;40916;51.632;5.552;2023-01-28T04:01:49;1025.1547007876472;;;1.792952860640895;0
55014;BME280;40916;51.632;5.552;2023-01-28T04:02:49;1025.193075857699;;;1.7705417992558985;0
55014;BME280;40916;51.632;5.552;2023-01-28T04:03:49;1025.2115755904547;;;1.7780128072696186;0
55014;BME280;40916;51.632;5.552;2023-01-28T04:04:49;1025.1569743596854;;;1.7705417992558985;0
55014;BME280;40916;51.632;5.552;2023-01-28T04:05:56;1025.1452405818832;;;1.75559781938761;0
55014;BME280;40916;51.632;5.552;2023-01-28T04:06:50;1025.2720466999726;;;1.7630701367075794;0
55014;BME280;40916;51.632;5.552;2023-01-28T04:07:51;1025.304082012358;;;1.75559781938761;0
55014;BME280;40916;51.632;5.552;2023-01-28T04:08:50;1025.275656793484;;;1.7630701367075794;0
55014;BME280;40916;51.632;5.552;2023-01-28T04:09:50;1025.2155997193036;;;1.7257019976461514;0
55014;BME280;40916;51.632;5.552;2023-01-28T04:10:50;1025.29187080813;;;1.7331769364255436;0
55014;BME280;40916;51.632;5.552;2023-01-28T04:11:50;1025.2449426858147;;;1.7331769364255436;0
55014;BME280;40916;51.632;5.552;2023-01-28T04:12:50;1025.2995535129598;;;1.7406512194839294;0
55014;BME280;40916;51.632;5.552;2023-01-28T04:13:50;1025.2553074649572;;;1.7257019976461514;0
55014;BME280;40916;51.632;5.552;2023-01-28T04:14:50;1025.3356526787352;;;1.7406512194839294;0
55014;BME280;40916;51.632;5.552;2023-01-28T04:15:50;1025.270211672344;;;1.7331769364255436;0
55014;BME280;40916;51.632;5.552;2023-01-28T04:16:50;1025.3347229979165;;;1.7257019976461514;0
55014;BME280;40916;51.632;5.552;2023-01-28T04:17:50;1025.3027003775721;;;1.7331769364255436;0